Cap Castillo — A8PI5 — position and weather

sailwx.info

Track history (hours):
 
Tides and Currents Weather Stations Pressure Air Temp Water Temp Dewpoint Dewpoint Depression Visibility Wind Speed Wind Dir Waves Ship Positions

Cap Castillo

Last reported at 2016-May-17 10:33 UTC. Time now 2016-May-29 23:06 UTC.
Position S 13°05' W 038°30'.
Warning: this ship's position is 12 days out of date.

Length 215 m; draft 11.3 m.

Type: Ship. MMSI: 636091558.

Date/timePositionNaut miles runAvg speedWind from/ knotsBaromVisibWave heightAir tempDewpointWater temp
2016-May-17 10:33S 13°05' W 038°30'8 8.5
2016-May-17 09:33S 12°58' W 038°33'2 2.4
2016-May-17 08:32S 12°58' W 038°30'0 0.0
2016-May-17 07:32S 12°58' W 038°30'0 0.0
2016-May-17 06:32S 12°58' W 038°30'0 0.0
2016-May-17 05:29S 12°58' W 038°30'0 0.0
2016-May-17 04:32S 12°58' W 038°30'0 0.0
2016-May-17 03:26S 12°58' W 038°30'0 0.0
2016-May-17 02:30S 12°58' W 038°30'1 1.5
2016-May-17 01:34S 12°57' W 038°32'8 6.9
2016-May-17 00:26S 13°03' W 038°36'1 0.9
2016-May-16 23:31S 13°03' W 038°37'0 0.1
2016-May-16 22:31S 13°03' W 038°37'0 0.0
2016-May-16 21:31S 13°03' W 038°37'0 0.0
2016-May-16 20:31S 13°03' W 038°37'0 0.1
2016-May-16 19:22S 13°04' W 038°37'0 0.0
2016-May-16 18:32S 13°04' W 038°37'1 0.9
2016-May-16 17:33S 13°04' W 038°38'1111.4
2016-May-16 16:33S 13°15' W 038°35'  
2016-May-12 22:33S 24°21' W 046°14'1312.7
2016-May-12 21:34S 24°10' W 046°21'1110.6
2016-May-12 20:33S 23°60' W 046°19'2 0.1
2016-May-12 10:07S 23°58' W 046°18'1 1.3
2016-May-12 09:25S 23°59' W 046°17'5 6.2
2016-May-12 08:33S 24°03' W 046°21'3 2.2
2016-May-12 07:12S 24°06' W 046°21'0 0.0
2016-May-12 06:15S 24°06' W 046°21'0 0.0
2016-May-12 05:30S 24°06' W 046°21'0 0.0
2016-May-12 03:30S 24°06' W 046°21'0 0.0
2016-May-12 02:24S 24°06' W 046°21'0 0.0
2016-May-12 01:33S 24°06' W 046°21'0 0.0
2016-May-12 00:33S 24°06' W 046°21'0 0.0
2016-May-11 23:27S 24°06' W 046°21'0 0.0
2016-May-11 22:33S 24°06' W 046°21'8 8.1
2016-May-11 21:33S 24°13' W 046°26'1413.6
2016-May-11 20:33S 24°26' W 046°31'1313.4
2016-May-11 19:33S 24°37' W 046°38'  
2016-May-09 06:33S 25°08' W 047°02'1715.1
2016-May-09 05:24S 24°54' W 046°51'1314.8
2016-May-09 04:33S 24°44' W 046°42'1414.5
2016-May-09 03:33S 24°32' W 046°34'1414.4
2016-May-09 02:33S 24°18' W 046°28'1514.8
2016-May-09 01:33S 24°04' W 046°22'7 6.6
2016-May-09 00:28S 23°58' W 046°18'0 0.0
2016-May-08 23:28S 23°58' W 046°18'0 0.0
2016-May-08 22:28S 23°58' W 046°18'0 0.0
2016-May-08 21:16S 23°58' W 046°18'0 0.0
2016-May-08 20:28S 23°58' W 046°18'0 0.0
2016-May-08 19:28S 23°58' W 046°18'0 0.0
2016-May-08 18:25S 23°58' W 046°18'0 0.0
2016-May-08 17:21S 23°58' W 046°18'0 0.0
2016-May-08 16:21S 23°58' W 046°18'0 0.0
2016-May-08 15:21S 23°58' W 046°18'0 0.0
2016-May-08 14:24S 23°58' W 046°18'0 0.0
2016-May-08 13:33S 23°58' W 046°18'0 0.0
2016-May-08 12:30S 23°58' W 046°18'0 0.0
2016-May-08 11:33S 23°58' W 046°18'0 0.2
2016-May-08 10:32S 23°58' W 046°18'7 6.9
2016-May-08 09:33S 24°04' W 046°22'1111.1
2016-May-08 08:33S 24°13' W 046°28'1211.9
2016-May-08 07:33S 24°20' W 046°17'  
Track history (hours):
 
Tides and Currents Weather Stations Pressure Air Temp Water Temp Dewpoint Dewpoint Depression Visibility Wind Speed Wind Dir Waves Ship Positions

Cap Castillo

Last reported at 2016-May-17 10:33 UTC. Time now 2016-May-29 23:06 UTC.
Position S 13°05' W 038°30'.
Warning: this ship's position is 12 days out of date.

Length 215 m; draft 11.3 m.

Type: Ship. MMSI: 636091558.

Date/timePositionNaut miles runAvg speedWind from/ knotsBaromVisibWave heightAir tempDewpointWater temp
2016-May-17 10:33S 13°05' W 038°30'8 8.5
2016-May-17 09:33S 12°58' W 038°33'2 2.4
2016-May-17 08:32S 12°58' W 038°30'0 0.0
2016-May-17 07:32S 12°58' W 038°30'0 0.0
2016-May-17 06:32S 12°58' W 038°30'0 0.0
2016-May-17 05:29S 12°58' W 038°30'0 0.0
2016-May-17 04:32S 12°58' W 038°30'0 0.0
2016-May-17 03:26S 12°58' W 038°30'0 0.0
2016-May-17 02:30S 12°58' W 038°30'1 1.5
2016-May-17 01:34S 12°57' W 038°32'8 6.9
2016-May-17 00:26S 13°03' W 038°36'1 0.9
2016-May-16 23:31S 13°03' W 038°37'0 0.1
2016-May-16 22:31S 13°03' W 038°37'0 0.0
2016-May-16 21:31S 13°03' W 038°37'0 0.0
2016-May-16 20:31S 13°03' W 038°37'0 0.1
2016-May-16 19:22S 13°04' W 038°37'0 0.0
2016-May-16 18:32S 13°04' W 038°37'1 0.9
2016-May-16 17:33S 13°04' W 038°38'1111.4
2016-May-16 16:33S 13°15' W 038°35'  
2016-May-12 22:33S 24°21' W 046°14'1312.7
2016-May-12 21:34S 24°10' W 046°21'1110.6
2016-May-12 20:33S 23°60' W 046°19'2 0.1
2016-May-12 10:07S 23°58' W 046°18'1 1.3
2016-May-12 09:25S 23°59' W 046°17'5 6.2
2016-May-12 08:33S 24°03' W 046°21'3 2.2
2016-May-12 07:12S 24°06' W 046°21'0 0.0
2016-May-12 06:15S 24°06' W 046°21'0 0.0
2016-May-12 05:30S 24°06' W 046°21'0 0.0
2016-May-12 03:30S 24°06' W 046°21'0 0.0
2016-May-12 02:24S 24°06' W 046°21'0 0.0
2016-May-12 01:33S 24°06' W 046°21'0 0.0
2016-May-12 00:33S 24°06' W 046°21'0 0.0
2016-May-11 23:27S 24°06' W 046°21'0 0.0
2016-May-11 22:33S 24°06' W 046°21'8 8.1
2016-May-11 21:33S 24°13' W 046°26'1413.6
2016-May-11 20:33S 24°26' W 046°31'1313.4
2016-May-11 19:33S 24°37' W 046°38'  
2016-May-09 06:33S 25°08' W 047°02'1715.1
2016-May-09 05:24S 24°54' W 046°51'1314.8
2016-May-09 04:33S 24°44' W 046°42'1414.5
2016-May-09 03:33S 24°32' W 046°34'1414.4
2016-May-09 02:33S 24°18' W 046°28'1514.8
2016-May-09 01:33S 24°04' W 046°22'7 6.6
2016-May-09 00:28S 23°58' W 046°18'0 0.0
2016-May-08 23:28S 23°58' W 046°18'0 0.0
2016-May-08 22:28S 23°58' W 046°18'0 0.0
2016-May-08 21:16S 23°58' W 046°18'0 0.0
2016-May-08 20:28S 23°58' W 046°18'0 0.0
2016-May-08 19:28S 23°58' W 046°18'0 0.0
2016-May-08 18:25S 23°58' W 046°18'0 0.0
2016-May-08 17:21S 23°58' W 046°18'0 0.0
2016-May-08 16:21S 23°58' W 046°18'0 0.0
2016-May-08 15:21S 23°58' W 046°18'0 0.0
2016-May-08 14:24S 23°58' W 046°18'0 0.0
2016-May-08 13:33S 23°58' W 046°18'0 0.0
2016-May-08 12:30S 23°58' W 046°18'0 0.0
2016-May-08 11:33S 23°58' W 046°18'0 0.2
2016-May-08 10:32S 23°58' W 046°18'7 6.9
2016-May-08 09:33S 24°04' W 046°22'1111.1
2016-May-08 08:33S 24°13' W 046°28'1211.9
2016-May-08 07:33S 24°20' W 046°17'  

Dump ship's entire track history